createdAt,value
2023-05-09T00:00:44.826Z,8.64
2023-05-09T00:03:51.720Z,8.62
2023-05-09T00:06:54.647Z,8.59
2023-05-09T00:09:57.724Z,8.57
2023-05-09T00:13:01.084Z,8.55
2023-05-09T00:16:04.371Z,8.54
2023-05-09T00:19:07.613Z,8.49
2023-05-09T00:22:12.951Z,8.41
2023-05-09T00:25:15.930Z,8.39
2023-05-09T00:28:20.097Z,8.38
2023-05-09T00:31:22.992Z,8.34
2023-05-09T00:34:25.660Z,8.28
2023-05-09T00:37:30.672Z,8.23
2023-05-09T00:40:33.552Z,8.19
2023-05-09T00:43:36.212Z,8.15
2023-05-09T00:46:40.109Z,8.12
2023-05-09T00:49:43.083Z,8.07
2023-05-09T00:52:45.739Z,8.03
2023-05-09T00:55:48.819Z,8.01
2023-05-09T00:58:52.200Z,7.97
2023-05-09T01:01:54.794Z,7.91
2023-05-09T01:04:58.578Z,7.91
2023-05-09T01:08:10.724Z,7.88
2023-05-09T01:11:47.788Z,7.80
2023-05-09T01:15:12.739Z,7.81
2023-05-09T01:18:26.277Z,7.78
2023-05-09T01:21:32.407Z,7.75
2023-05-09T01:24:54.767Z,7.71
2023-05-09T01:28:17.006Z,7.67
2023-05-09T01:31:20.170Z,7.64
2023-05-09T01:34:26.800Z,7.64
2023-05-09T01:37:32.114Z,7.62
2023-05-09T01:40:35.994Z,7.57
2023-05-09T01:43:40.594Z,7.55
2023-05-09T01:46:45.073Z,7.52
2023-05-09T01:49:48.293Z,7.44
2023-05-09T01:52:55.080Z,7.39
2023-05-09T01:55:59.444Z,7.36
2023-05-09T01:59:02.833Z,7.36
2023-05-09T02:02:07.862Z,7.37
2023-05-09T02:05:12.360Z,7.36
2023-05-09T02:08:15.644Z,7.34
2023-05-09T02:11:18.297Z,7.34
2023-05-09T02:14:20.931Z,7.34
2023-05-09T02:17:23.513Z,7.34
2023-05-09T02:20:26.297Z,7.33
2023-05-09T02:23:29.062Z,7.31
2023-05-09T02:26:31.938Z,7.29
2023-05-09T02:29:40.581Z,7.27
2023-05-09T02:32:45.402Z,7.25
2023-05-09T02:35:48.865Z,7.20
2023-05-09T02:38:51.607Z,7.17
2023-05-09T02:41:54.164Z,7.14
2023-05-09T02:44:56.832Z,7.11
2023-05-09T02:47:59.829Z,7.08
2023-05-09T02:51:02.771Z,7.06
2023-05-09T02:54:06.474Z,7.04
2023-05-09T02:57:09.160Z,7.00
2023-05-09T03:00:12.411Z,6.97
2023-05-09T03:03:15.552Z,6.94
2023-05-09T03:06:18.349Z,6.91
2023-05-09T03:09:21.115Z,6.89
2023-05-09T03:12:24.088Z,6.86
2023-05-09T03:15:26.929Z,6.83
2023-05-09T03:18:29.524Z,6.78
2023-05-09T03:21:32.210Z,6.76
2023-05-09T03:24:34.852Z,6.72
2023-05-09T03:27:37.426Z,6.70
2023-05-09T03:30:40.000Z,6.68
2023-05-09T03:33:42.935Z,6.67
2023-05-09T03:36:45.449Z,6.66
2023-05-09T03:39:48.087Z,6.61
2023-05-09T03:42:50.610Z,6.59
2023-05-09T03:45:53.217Z,6.58
2023-05-09T03:48:55.974Z,6.57
2023-05-09T03:51:58.911Z,6.55
2023-05-09T03:55:01.534Z,6.45
2023-05-09T03:58:04.285Z,6.53
2023-05-09T04:01:06.952Z,6.52
2023-05-09T04:04:09.835Z,6.51
2023-05-09T04:07:12.790Z,6.56
2023-05-09T04:10:15.554Z,6.60
2023-05-09T04:13:18.250Z,6.65
2023-05-09T04:16:21.049Z,6.69
2023-05-09T04:19:23.855Z,6.71
2023-05-09T04:22:26.451Z,6.73
2023-05-09T04:25:29.595Z,6.74
2023-05-09T04:28:32.171Z,6.75
2023-05-09T04:31:35.306Z,6.78
2023-05-09T04:34:38.109Z,6.80
2023-05-09T04:37:40.767Z,6.83
2023-05-09T04:40:43.272Z,6.87
2023-05-09T04:43:46.107Z,6.89
2023-05-09T04:46:50.708Z,6.91
2023-05-09T04:49:53.272Z,6.92
2023-05-09T04:52:55.936Z,6.93
2023-05-09T04:55:58.513Z,6.95
2023-05-09T04:59:01.174Z,6.97
2023-05-09T05:02:03.766Z,7.00
2023-05-09T05:05:12.054Z,7.02
2023-05-09T05:08:15.200Z,7.05
2023-05-09T05:11:21.854Z,7.08
2023-05-09T05:14:24.582Z,7.14
2023-05-09T05:17:29.676Z,7.21
2023-05-09T05:20:32.659Z,7.23
2023-05-09T05:23:35.385Z,7.27
2023-05-09T05:26:38.042Z,7.30
2023-05-09T05:29:40.713Z,7.33
2023-05-09T05:32:44.154Z,7.38
2023-05-09T05:35:46.857Z,7.43
2023-05-09T05:38:49.535Z,7.47
2023-05-09T05:41:52.954Z,7.53
2023-05-09T05:44:55.803Z,7.57
2023-05-09T05:47:58.484Z,7.63
2023-05-09T05:51:01.197Z,7.70
2023-05-09T05:54:04.128Z,7.78
2023-05-09T05:57:08.284Z,7.87
2023-05-09T06:00:11.865Z,7.96
2023-05-09T06:03:14.701Z,8.04
2023-05-09T06:06:17.508Z,8.12
2023-05-09T06:09:20.031Z,8.20
2023-05-09T06:12:22.568Z,8.25
2023-05-09T06:15:25.148Z,8.32
2023-05-09T06:18:28.058Z,8.38
2023-05-09T06:21:30.625Z,8.41
2023-05-09T06:24:36.272Z,8.44
2023-05-09T06:27:39.342Z,8.46
2023-05-09T06:30:41.852Z,8.52
2023-05-09T06:33:44.452Z,8.59
2023-05-09T06:36:47.229Z,8.66
2023-05-09T06:39:51.132Z,8.73
2023-05-09T06:42:53.759Z,8.78
2023-05-09T06:45:56.294Z,8.85
2023-05-09T06:49:01.791Z,8.91
2023-05-09T06:52:04.555Z,8.99
2023-05-09T06:55:08.333Z,9.03
2023-05-09T06:58:12.230Z,9.09
2023-05-09T07:01:14.781Z,9.18
2023-05-09T07:04:17.361Z,9.24
2023-05-09T07:07:19.917Z,9.30
2023-05-09T07:10:22.570Z,9.38
2023-05-09T07:13:25.377Z,9.44
2023-05-09T07:16:29.570Z,9.50
2023-05-09T07:19:32.226Z,9.53
2023-05-09T07:22:36.978Z,9.57
2023-05-09T07:25:40.457Z,9.62
2023-05-09T07:28:43.103Z,9.70
2023-05-09T07:31:46.185Z,9.77
2023-05-09T07:34:48.761Z,9.84
2023-05-09T07:37:51.376Z,9.91
2023-05-09T07:40:53.932Z,9.97
2023-05-09T07:43:56.801Z,10.04
2023-05-09T07:46:59.989Z,10.12
2023-05-09T07:50:02.750Z,10.25
2023-05-09T07:53:05.411Z,10.32
2023-05-09T07:56:08.076Z,10.38
2023-05-09T07:59:10.812Z,10.41
2023-05-09T08:02:13.423Z,10.41
2023-05-09T08:05:16.507Z,10.46
2023-05-09T08:08:19.347Z,10.52
2023-05-09T08:11:22.058Z,10.56
2023-05-09T08:14:24.691Z,10.61
2023-05-09T08:17:27.320Z,10.68
2023-05-09T08:20:31.882Z,10.73
2023-05-09T08:23:34.812Z,10.80
2023-05-09T08:26:37.501Z,10.90
2023-05-09T08:29:40.774Z,10.95
2023-05-09T08:32:43.289Z,11.00
2023-05-09T08:35:50.511Z,11.05
2023-05-09T08:38:53.298Z,11.12
2023-05-09T08:42:00.244Z,11.23
2023-05-09T08:45:16.316Z,11.31
2023-05-09T08:48:19.598Z,11.35
2023-05-09T08:51:22.416Z,11.41
2023-05-09T08:54:27.499Z,11.45
2023-05-09T08:57:32.958Z,11.53
2023-05-09T09:00:38.973Z,11.56
2023-05-09T09:03:47.805Z,11.60
2023-05-09T09:06:53.035Z,11.65
2023-05-09T09:09:57.788Z,11.76
2023-05-09T09:13:03.519Z,11.87
2023-05-09T09:16:09.016Z,11.98
2023-05-09T09:19:13.765Z,12.08
2023-05-09T09:22:19.398Z,12.17
2023-05-09T09:25:22.060Z,12.26
2023-05-09T09:28:24.727Z,12.29
2023-05-09T09:31:31.737Z,12.32
2023-05-09T09:34:34.471Z,12.36
2023-05-09T09:37:43.649Z,12.42
2023-05-09T09:40:52.316Z,12.45
2023-05-09T09:43:58.189Z,12.46
2023-05-09T09:47:01.704Z,12.48
2023-05-09T09:50:15.477Z,12.53
2023-05-09T09:53:20.844Z,12.67
2023-05-09T09:56:39.170Z,12.69
2023-05-09T09:59:42.750Z,12.73
2023-05-09T10:02:56.483Z,12.80
2023-05-09T10:06:02.532Z,12.86
2023-05-09T10:09:05.179Z,12.99
2023-05-09T10:12:08.667Z,13.02
2023-05-09T10:15:12.961Z,13.17
2023-05-09T10:18:20.335Z,13.32
2023-05-09T10:21:22.989Z,13.30
2023-05-09T10:24:35.540Z,13.31
2023-05-09T10:27:41.528Z,13.36
2023-05-09T10:30:59.978Z,13.45
2023-05-09T10:34:09.902Z,13.51
2023-05-09T10:37:12.705Z,13.59
2023-05-09T10:40:15.786Z,13.72
2023-05-09T10:43:18.634Z,13.80
2023-05-09T10:46:23.626Z,13.86
2023-05-09T10:49:26.906Z,13.91
2023-05-09T10:52:35.881Z,13.94
2023-05-09T10:55:48.608Z,14.01
2023-05-09T10:58:51.254Z,14.10
2023-05-09T11:02:01.077Z,14.19
2023-05-09T11:05:18.285Z,14.26
2023-05-09T11:08:23.379Z,14.33
2023-05-09T11:11:26.100Z,14.40
2023-05-09T11:14:41.124Z,14.46
2023-05-09T11:17:43.778Z,14.49
2023-05-09T11:20:49.138Z,14.54
2023-05-09T11:23:54.448Z,14.62
2023-05-09T11:26:57.927Z,14.68
2023-05-09T11:30:05.572Z,14.75
2023-05-09T11:33:27.337Z,14.81
2023-05-09T11:36:33.706Z,14.85
2023-05-09T11:39:55.583Z,14.92
2023-05-09T11:42:59.448Z,14.97
2023-05-09T11:46:03.507Z,15.04
2023-05-09T11:49:10.627Z,15.11
2023-05-09T11:52:14.524Z,15.24
2023-05-09T11:55:19.888Z,15.33
2023-05-09T11:58:22.532Z,15.48
2023-05-09T12:01:25.780Z,15.66
2023-05-09T12:04:30.486Z,15.84
2023-05-09T12:07:33.050Z,15.89
2023-05-09T12:10:40.323Z,15.95
2023-05-09T12:13:48.556Z,16.05
2023-05-09T12:16:51.160Z,16.06
2023-05-09T12:19:54.232Z,16.15
2023-05-09T12:22:56.913Z,16.17
2023-05-09T12:25:59.583Z,16.24
2023-05-09T12:29:02.262Z,16.31
2023-05-09T12:32:05.419Z,16.39
2023-05-09T12:35:10.770Z,16.45
2023-05-09T12:38:23.441Z,16.45
2023-05-09T12:44:31.882Z,16.46
2023-05-09T12:47:34.541Z,16.48
2023-05-09T12:50:37.187Z,16.61
2023-05-09T12:53:41.762Z,16.70
2023-05-09T12:56:45.362Z,16.72
2023-05-09T12:59:48.336Z,16.75
2023-05-09T13:02:53.145Z,16.83
2023-05-09T13:06:01.160Z,16.95
2023-05-09T13:09:08.120Z,17.05
2023-05-09T13:12:10.821Z,17.13
2023-05-09T13:15:14.473Z,17.17
2023-05-09T13:18:17.759Z,17.20
2023-05-09T13:21:21.230Z,17.22
2023-05-09T13:24:23.982Z,17.22
2023-05-09T13:27:28.082Z,17.33
2023-05-09T13:30:31.252Z,17.45
2023-05-09T13:33:34.031Z,17.79
2023-05-09T13:36:36.770Z,18.23
2023-05-09T13:39:39.562Z,18.56
2023-05-09T13:42:42.378Z,18.61
2023-05-09T13:45:45.004Z,18.50
2023-05-09T13:48:48.072Z,18.50
2023-05-09T13:51:50.938Z,18.59
2023-05-09T13:54:53.618Z,18.79
2023-05-09T13:57:56.474Z,18.93
2023-05-09T14:00:59.155Z,19.13
2023-05-09T14:04:02.788Z,19.35
2023-05-09T14:07:05.506Z,19.59
2023-05-09T14:10:11.969Z,19.70
2023-05-09T14:13:15.916Z,19.91
2023-05-09T14:16:22.339Z,20.15
2023-05-09T14:19:30.160Z,20.29
2023-05-09T14:22:32.862Z,20.23
2023-05-09T14:25:35.505Z,20.16
2023-05-09T14:28:38.374Z,20.34
2023-05-09T14:31:41.075Z,20.50
2023-05-09T14:34:44.072Z,20.58
2023-05-09T14:37:47.606Z,20.70
2023-05-09T14:40:50.171Z,20.96
2023-05-09T14:43:52.839Z,21.07
2023-05-09T14:46:55.772Z,21.27
2023-05-09T14:49:58.772Z,21.34
2023-05-09T14:53:02.255Z,21.32
2023-05-09T14:56:05.777Z,21.21
2023-05-09T14:59:09.637Z,21.20
2023-05-09T15:02:12.627Z,21.29
2023-05-09T15:05:15.995Z,21.40
2023-05-09T15:08:19.065Z,21.55
2023-05-09T15:11:22.134Z,21.69
2023-05-09T15:14:24.849Z,21.52
2023-05-09T15:17:27.566Z,21.35
2023-05-09T15:20:30.130Z,21.38
2023-05-09T15:23:32.911Z,21.47
2023-05-09T15:26:35.766Z,21.47
2023-05-09T15:29:38.840Z,21.45
2023-05-09T15:32:41.696Z,21.46
2023-05-09T15:35:45.295Z,21.46
2023-05-09T15:38:49.719Z,21.60
2023-05-09T15:41:52.753Z,21.84
2023-05-09T15:44:55.354Z,22.25
2023-05-09T15:47:59.087Z,22.81
2023-05-09T15:51:02.821Z,23.28
2023-05-09T15:54:05.465Z,23.89
2023-05-09T15:57:08.353Z,24.41
2023-05-09T16:00:12.459Z,24.75
2023-05-09T16:03:15.439Z,25.31
2023-05-09T16:06:18.402Z,25.58
2023-05-09T16:09:21.558Z,25.71
2023-05-09T16:12:25.238Z,25.70
2023-05-09T16:15:27.829Z,25.47
2023-05-09T16:18:30.394Z,25.05
2023-05-09T16:21:33.422Z,24.64
2023-05-09T16:24:37.395Z,24.13
2023-05-09T16:27:40.143Z,23.43
2023-05-09T16:30:42.696Z,22.73
2023-05-09T16:33:47.142Z,22.21
2023-05-09T16:36:49.965Z,21.96
2023-05-09T16:39:52.472Z,21.86
2023-05-09T16:42:55.087Z,21.52
2023-05-09T16:45:57.770Z,21.24
2023-05-09T16:49:00.418Z,21.11
2023-05-09T16:52:03.008Z,21.10
2023-05-09T16:55:06.172Z,20.86
2023-05-09T16:58:08.760Z,20.67
2023-05-09T17:01:11.790Z,20.71
2023-05-09T17:04:14.820Z,20.68
2023-05-09T17:07:17.380Z,20.56
2023-05-09T17:10:20.039Z,20.47
2023-05-09T17:13:22.787Z,20.28
2023-05-09T17:16:25.616Z,20.18
2023-05-09T17:19:28.301Z,20.03
2023-05-09T17:22:30.968Z,19.92
2023-05-09T17:25:33.525Z,19.78
2023-05-09T17:28:36.147Z,19.74
2023-05-09T17:31:38.775Z,19.86
2023-05-09T17:34:41.744Z,20.01
2023-05-09T17:37:44.498Z,20.00
2023-05-09T17:40:47.579Z,19.88
2023-05-09T17:43:52.183Z,19.92
2023-05-09T17:46:54.947Z,19.95
2023-05-09T17:49:57.518Z,19.85
2023-05-09T17:53:00.545Z,19.70
2023-05-09T17:56:03.234Z,19.52
2023-05-09T17:59:06.646Z,19.29
2023-05-09T18:02:09.290Z,19.03
2023-05-09T18:05:11.890Z,18.70
2023-05-09T18:08:14.523Z,18.45
2023-05-09T18:11:17.149Z,18.24
2023-05-09T18:14:19.727Z,18.01
2023-05-09T18:17:22.367Z,17.81
2023-05-09T18:20:25.078Z,17.63
2023-05-09T18:23:31.749Z,17.39
2023-05-09T18:26:34.280Z,17.13
2023-05-09T18:29:38.097Z,16.89
2023-05-09T18:32:41.227Z,16.68
2023-05-09T18:35:43.917Z,16.49
2023-05-09T18:38:47.933Z,16.32
2023-05-09T18:41:50.797Z,16.20
2023-05-09T18:44:53.672Z,16.08
2023-05-09T18:47:56.249Z,16.00
2023-05-09T18:50:59.103Z,15.92
2023-05-09T18:54:02.114Z,15.83
2023-05-09T18:57:04.740Z,15.73
2023-05-09T19:00:08.329Z,15.63
2023-05-09T19:03:10.962Z,15.56
2023-05-09T19:06:14.791Z,15.51
2023-05-09T19:09:18.162Z,15.44
2023-05-09T19:12:20.932Z,15.38
2023-05-09T19:15:23.593Z,15.32
2023-05-09T19:18:26.340Z,15.26
2023-05-09T19:21:29.832Z,15.16
2023-05-09T19:24:53.190Z,15.07
2023-05-09T19:27:56.369Z,14.99
2023-05-09T19:30:59.151Z,14.94
2023-05-09T19:34:02.003Z,14.86
2023-05-09T19:37:04.564Z,14.78
2023-05-09T19:40:13.452Z,14.70
2023-05-09T19:43:16.787Z,14.63
2023-05-09T19:46:19.473Z,14.56
2023-05-09T19:49:22.293Z,14.47
2023-05-09T19:52:24.947Z,14.40
2023-05-09T19:55:27.922Z,14.35
2023-05-09T19:58:30.425Z,14.28
2023-05-09T20:01:33.094Z,14.23
2023-05-09T20:04:36.537Z,14.16
2023-05-09T20:10:57.449Z,13.97
2023-05-09T20:14:00.112Z,13.90
2023-05-09T20:17:04.388Z,13.86
2023-05-09T20:20:07.685Z,13.81
2023-05-09T20:23:10.751Z,13.72
2023-05-09T20:26:13.410Z,13.64
2023-05-09T20:29:16.277Z,13.58
2023-05-09T20:32:18.938Z,13.53
2023-05-09T20:35:21.711Z,13.44
2023-05-09T20:38:24.376Z,13.37
2023-05-09T20:41:49.247Z,13.28
2023-05-09T20:44:53.038Z,13.21
2023-05-09T20:47:56.074Z,13.15
2023-05-09T20:50:58.787Z,13.10
2023-05-09T20:54:01.441Z,13.05
2023-05-09T20:57:09.122Z,13.03
2023-05-09T21:00:12.349Z,13.00
2023-05-09T21:03:15.179Z,12.96
2023-05-09T21:06:18.146Z,12.92
2023-05-09T21:09:20.817Z,12.88
2023-05-09T21:12:30.852Z,12.85
2023-05-09T21:15:33.518Z,12.81
2023-05-09T21:22:32.153Z,12.65
2023-05-09T21:25:34.815Z,12.60
2023-05-09T21:28:59.384Z,12.53
2023-05-09T21:32:02.066Z,12.48
2023-05-09T21:35:07.407Z,12.46
2023-05-09T21:38:10.036Z,12.42
2023-05-09T21:41:12.701Z,12.35
2023-05-09T21:44:22.530Z,12.33
2023-05-09T21:47:25.370Z,12.31
2023-05-09T21:54:27.431Z,12.20
2023-05-09T21:57:30.086Z,12.15
2023-05-09T22:00:49.066Z,12.11
2023-05-09T22:03:51.991Z,12.08
2023-05-09T22:06:54.764Z,12.01
2023-05-09T22:13:48.221Z,11.95
2023-05-09T22:16:50.917Z,11.88
2023-05-09T22:19:53.742Z,11.87
2023-05-09T22:22:56.714Z,11.85
2023-05-09T22:25:59.365Z,11.82
2023-05-09T22:29:02.133Z,11.75
2023-05-09T22:32:07.768Z,11.69
2023-05-09T22:35:10.743Z,11.64
2023-05-09T22:38:23.531Z,11.60
2023-05-09T22:41:26.319Z,11.56
2023-05-09T22:44:35.737Z,11.51
2023-05-09T22:47:38.306Z,11.46
2023-05-09T22:50:41.223Z,11.41
2023-05-09T22:53:43.811Z,11.37
2023-05-09T22:56:47.501Z,11.33
2023-05-09T22:59:50.278Z,11.29
2023-05-09T23:02:52.964Z,11.27
2023-05-09T23:05:55.905Z,11.23
2023-05-09T23:08:58.572Z,11.20
2023-05-09T23:12:01.424Z,11.14
2023-05-09T23:15:05.841Z,11.08
2023-05-09T23:18:08.591Z,11.04
2023-05-09T23:21:11.263Z,11.01
2023-05-09T23:24:13.846Z,10.99
2023-05-09T23:27:16.410Z,10.94
2023-05-09T23:30:19.045Z,10.90
2023-05-09T23:33:21.655Z,10.87
2023-05-09T23:36:24.193Z,10.81
2023-05-09T23:39:26.701Z,10.77
2023-05-09T23:42:29.322Z,10.75
2023-05-09T23:45:32.300Z,10.72
2023-05-09T23:48:34.957Z,10.67
2023-05-09T23:51:37.831Z,10.62
2023-05-09T23:54:40.590Z,10.58
2023-05-09T23:57:43.246Z,10.55
